Time;durP1;ratioP1;P1;durP2;ratioP2;P2;SDS_P1;SDS_P2;PMS_P1;PMS_P2;Temp;Humidity;BMP_temperature;BMP_pressure;BME280_temperature;BME280_humidity;BME280_pressure;Samples;Min_cycle;Max_cycle;Signal;HPM_P1;HPM_P2
2021/05/04 00:01:25;;;;;;;;;;;11.90;99.90;;;;;;5101857;28;19915;-76
2021/05/04 00:03:50;;;;;;;;;;;11.80;99.90;;;;;;5104103;28;19965;-76
2021/05/04 00:06:16;;;;;;;;;;;11.70;99.90;;;;;;5107841;28;19904;-75
2021/05/04 00:08:41;;;;;;;;;;;11.60;99.90;;;;;;5105619;28;19912;-76
2021/05/04 00:11:07;;;;;;;;;;;11.50;99.90;;;;;;5095675;28;19915;-78
2021/05/04 00:13:32;;;;;;;;;;;11.40;99.90;;;;;;5098953;28;19954;-78
2021/05/04 00:15:58;;;;;;;;;;;11.30;99.90;;;;;;5098204;28;19923;-79
2021/05/04 00:18:23;;;;;;;;;;;11.20;99.90;;;;;;5098416;28;19908;-78
2021/05/04 00:20:49;;;;;;;;;;;11.10;99.90;;;;;;5098470;28;19908;-78
2021/05/04 00:23:14;;;;;;;;;;;11.00;99.90;;;;;;5097786;28;19908;-75
2021/05/04 00:25:40;;;;;;;;;;;10.90;99.90;;;;;;5097475;28;20441;-75
2021/05/04 00:28:05;;;;;;;;;;;10.80;99.90;;;;;;5094624;28;20010;-74
2021/05/04 00:30:31;;;;;;;;;;;10.60;99.90;;;;;;5095160;28;20357;-74
2021/05/04 00:32:56;;;;;;;;;;;10.60;99.90;;;;;;5094595;28;19915;-74
2021/05/04 00:35:22;;;;;;;;;;;10.50;99.90;;;;;;5095284;28;19912;-73
2021/05/04 00:37:47;;;;;;;;;;;10.40;99.90;;;;;;5095400;28;19977;-74
2021/05/04 00:40:13;;;;;;;;;;;10.30;99.90;;;;;;5095800;28;19965;-74
2021/05/04 00:42:38;;;;;;;;;;;10.30;99.90;;;;;;5093956;28;20356;-74
2021/05/04 00:45:05;;;;;;;;;;;10.20;99.90;;;;;;5096050;28;19912;-73
2021/05/04 00:47:30;;;;;;;;;;;10.10;99.90;;;;;;5095482;28;19947;-73
2021/05/04 00:49:56;;;;;;;;;;;10.10;99.90;;;;;;5094944;28;20305;-73
2021/05/04 00:52:21;;;;;;;;;;;10.10;99.90;;;;;;5095048;28;19920;-72
2021/05/04 00:54:47;;;;;;;;;;;10.00;99.90;;;;;;5095745;28;19908;-71
2021/05/04 00:57:13;;;;;;;;;;;10.00;99.90;;;;;;5094034;28;20404;-72
2021/05/04 00:59:39;;;;;;;;;;;9.90;99.90;;;;;;5094815;28;20372;-71
2021/05/04 01:04:48;;;;;;;;;;;9.90;99.90;;;;;;5089063;28;19915;-71
2021/05/04 01:07:14;;;;;;;;;;;9.90;99.90;;;;;;5094956;28;19908;-71
2021/05/04 01:09:39;;;;;;;;;;;9.90;99.90;;;;;;5094000;28;19915;-73
2021/05/04 01:12:05;;;;;;;;;;;9.80;99.90;;;;;;5094308;28;19915;-71
2021/05/04 01:14:30;;;;;;;;;;;9.70;99.90;;;;;;5094568;28;20264;-73
2021/05/04 01:16:56;;;;;;;;;;;9.70;99.90;;;;;;5094388;28;19952;-72
2021/05/04 01:19:22;;;;;;;;;;;9.60;99.90;;;;;;5094878;28;19912;-71
2021/05/04 01:21:48;;;;;;;;;;;9.50;99.90;;;;;;5094129;28;20006;-74
2021/05/04 01:24:14;;;;;;;;;;;9.50;99.90;;;;;;5094491;28;20005;-73
2021/05/04 01:26:41;;;;;;;;;;;9.40;99.90;;;;;;5094081;28;19908;-72
2021/05/04 01:29:06;;;;;;;;;;;9.40;99.90;;;;;;5094456;28;19981;-72
2021/05/04 01:31:32;;;;;;;;;;;9.40;99.90;;;;;;5094115;28;19935;-72
2021/05/04 01:33:57;;;;;;;;;;;9.40;99.90;;;;;;5094661;28;19908;-72
2021/05/04 01:36:23;;;;;;;;;;;9.40;99.90;;;;;;5093382;28;19908;-72
2021/05/04 01:38:49;;;;;;;;;;;9.50;99.90;;;;;;5094895;28;20367;-72
2021/05/04 01:41:14;;;;;;;;;;;9.40;99.90;;;;;;5095506;28;19912;-73
2021/05/04 01:43:40;;;;;;;;;;;9.40;99.90;;;;;;5094224;28;19995;-73
2021/05/04 01:46:05;;;;;;;;;;;9.40;99.90;;;;;;5093444;28;20322;-74
2021/05/04 01:48:32;;;;;;;;;;;9.30;99.90;;;;;;5090566;28;19965;-72
2021/05/04 01:50:58;;;;;;;;;;;9.30;99.90;;;;;;5094351;28;19931;-72
2021/05/04 01:53:23;;;;;;;;;;;9.30;99.90;;;;;;5092974;28;19912;-72
2021/05/04 01:55:49;;;;;;;;;;;9.30;99.90;;;;;;5096542;28;20001;-73
2021/05/04 01:58:15;;;;;;;;;;;9.30;99.90;;;;;;5096358;28;19908;-73
2021/05/04 02:00:41;;;;;;;;;;;9.30;99.90;;;;;;5094982;28;20019;-73
2021/05/04 02:03:06;;;;;;;;;;;9.30;99.90;;;;;;5095297;28;20006;-71
2021/05/04 02:05:31;;;;;;;;;;;9.30;99.90;;;;;;5094744;28;19918;-71
2021/05/04 02:07:57;;;;;;;;;;;9.30;99.90;;;;;;5092692;28;19934;-71
2021/05/04 02:10:22;;;;;;;;;;;9.20;99.90;;;;;;5094256;28;19908;-71
2021/05/04 02:12:48;;;;;;;;;;;9.30;99.90;;;;;;5094379;28;19908;-71
2021/05/04 02:15:13;;;;;;;;;;;9.30;99.90;;;;;;5093688;28;19915;-71
2021/05/04 02:17:39;;;;;;;;;;;9.30;99.90;;;;;;5093811;28;20295;-72
2021/05/04 02:20:05;;;;;;;;;;;9.30;99.90;;;;;;5084252;28;19915;-71
2021/05/04 02:22:31;;;;;;;;;;;9.20;99.90;;;;;;5092573;28;19955;-71
2021/05/04 02:24:56;;;;;;;;;;;9.20;99.90;;;;;;5093384;28;20320;-71
2021/05/04 02:27:21;;;;;;;;;;;9.20;99.90;;;;;;5092086;28;19957;-71
2021/05/04 02:29:47;;;;;;;;;;;9.20;99.90;;;;;;5093622;28;19999;-71
2021/05/04 02:32:12;;;;;;;;;;;9.20;99.90;;;;;;5092390;28;20356;-71
2021/05/04 02:34:38;;;;;;;;;;;9.20;99.90;;;;;;5092004;28;19908;-71
2021/05/04 02:37:03;;;;;;;;;;;9.20;99.90;;;;;;5092688;28;19931;-72
2021/05/04 02:39:29;;;;;;;;;;;9.10;99.90;;;;;;5093656;28;19908;-71
2021/05/04 02:41:54;;;;;;;;;;;9.10;99.90;;;;;;5094007;28;19911;-73
2021/05/04 02:44:20;;;;;;;;;;;9.10;99.90;;;;;;5092330;28;19908;-73
2021/05/04 02:46:45;;;;;;;;;;;9.10;99.90;;;;;;5088059;28;20173;-72
2021/05/04 02:49:11;;;;;;;;;;;9.00;99.90;;;;;;5091462;28;19922;-73
2021/05/04 02:51:36;;;;;;;;;;;9.00;99.90;;;;;;5092711;28;20284;-73
2021/05/04 02:54:02;;;;;;;;;;;9.00;99.90;;;;;;5092867;28;19908;-72
2021/05/04 02:56:27;;;;;;;;;;;9.00;99.90;;;;;;5091755;28;19914;-72
2021/05/04 02:58:53;;;;;;;;;;;9.00;99.90;;;;;;5092030;28;19908;-72
2021/05/04 03:01:19;;;;;;;;;;;9.00;99.90;;;;;;5092988;28;19924;-72
2021/05/04 03:03:44;;;;;;;;;;;9.00;99.90;;;;;;5092148;28;19908;-72
2021/05/04 03:06:10;;;;;;;;;;;9.00;99.90;;;;;;5092236;28;19904;-72
2021/05/04 03:08:36;;;;;;;;;;;9.00;99.90;;;;;;5092546;28;19935;-72
2021/05/04 03:11:01;;;;;;;;;;;9.00;99.90;;;;;;5092395;28;20352;-72
2021/05/04 03:13:28;;;;;;;;;;;9.00;99.90;;;;;;5092129;28;19908;-73
2021/05/04 03:15:54;;;;;;;;;;;8.90;99.90;;;;;;5093265;28;19967;-72
2021/05/04 03:18:20;;;;;;;;;;;8.90;99.90;;;;;;5092973;28;19962;-72
2021/05/04 03:20:46;;;;;;;;;;;8.90;99.90;;;;;;5092822;28;19908;-72
2021/05/04 03:23:12;;;;;;;;;;;8.90;99.90;;;;;;5091177;28;20061;-72
2021/05/04 03:25:38;;;;;;;;;;;8.90;99.90;;;;;;5093183;28;19946;-72
2021/05/04 03:28:03;;;;;;;;;;;9.00;99.90;;;;;;5091477;28;20322;-72
2021/05/04 03:30:29;;;;;;;;;;;9.10;99.90;;;;;;5091814;28;19908;-72
2021/05/04 03:32:55;;;;;;;;;;;9.20;99.90;;;;;;5101381;28;19915;-73
2021/05/04 03:35:20;;;;;;;;;;;9.30;99.90;;;;;;5109779;28;19994;-73
2021/05/04 03:37:46;;;;;;;;;;;9.20;99.90;;;;;;5114282;28;19971;-73
2021/05/04 03:40:12;;;;;;;;;;;9.20;99.90;;;;;;5115773;28;19919;-72
2021/05/04 03:42:37;;;;;;;;;;;9.20;99.90;;;;;;5105323;28;19911;-73
2021/05/04 03:45:04;;;;;;;;;;;9.20;99.90;;;;;;5098107;28;19908;-73
2021/05/04 03:47:29;;;;;;;;;;;9.20;99.90;;;;;;5096101;28;20011;-72
2021/05/04 03:49:55;;;;;;;;;;;9.20;99.90;;;;;;5097350;28;20054;-73
2021/05/04 03:52:20;;;;;;;;;;;9.20;99.90;;;;;;5096989;28;19904;-73
2021/05/04 03:54:46;;;;;;;;;;;9.20;99.90;;;;;;5096021;28;19954;-73
2021/05/04 03:57:12;;;;;;;;;;;9.30;99.90;;;;;;5097049;28;19912;-72
2021/05/04 03:59:37;;;;;;;;;;;9.30;99.90;;;;;;5096810;28;19912;-72
2021/05/04 04:02:03;;;;;;;;;;;9.30;99.90;;;;;;5096585;28;19935;-72
2021/05/04 04:04:29;;;;;;;;;;;9.20;99.90;;;;;;5096199;28;19942;-72
2021/05/04 04:06:54;;;;;;;;;;;9.30;99.90;;;;;;5096522;28;19908;-72
2021/05/04 04:09:20;;;;;;;;;;;9.20;99.90;;;;;;5096473;28;19957;-72
2021/05/04 04:11:45;;;;;;;;;;;9.30;99.90;;;;;;5096464;28;19915;-72
2021/05/04 04:14:11;;;;;;;;;;;9.30;99.90;;;;;;5094759;28;19912;-72
2021/05/04 04:16:37;;;;;;;;;;;9.30;99.90;;;;;;5095923;28;20019;-72
2021/05/04 04:19:02;;;;;;;;;;;9.30;99.90;;;;;;5096443;28;19955;-72
2021/05/04 04:21:28;;;;;;;;;;;9.30;99.90;;;;;;5094657;28;19914;-72
2021/05/04 04:23:53;;;;;;;;;;;9.30;99.90;;;;;;5096347;28;19961;-72
2021/05/04 04:26:19;;;;;;;;;;;9.30;99.90;;;;;;5094768;28;20267;-72
2021/05/04 04:28:44;;;;;;;;;;;9.30;99.90;;;;;;5095106;28;19912;-72
2021/05/04 04:31:10;;;;;;;;;;;9.30;99.90;;;;;;5095984;28;19915;-72
2021/05/04 04:33:35;;;;;;;;;;;9.30;99.90;;;;;;5095854;28;19912;-72
2021/05/04 04:36:01;;;;;;;;;;;9.30;99.90;;;;;;5094939;28;20307;-72
2021/05/04 04:38:26;;;;;;;;;;;9.30;99.90;;;;;;5095175;28;19908;-72
2021/05/04 04:40:52;;;;;;;;;;;9.30;99.90;;;;;;5094674;28;19968;-75
2021/05/04 04:43:17;;;;;;;;;;;9.40;99.90;;;;;;5094069;28;19926;-74
2021/05/04 04:45:43;;;;;;;;;;;9.30;99.90;;;;;;5095765;28;19908;-74
2021/05/04 04:48:08;;;;;;;;;;;9.30;99.90;;;;;;5096011;28;19916;-74
2021/05/04 04:50:34;;;;;;;;;;;9.20;99.90;;;;;;5095366;28;19907;-75
2021/05/04 04:53:00;;;;;;;;;;;9.20;99.90;;;;;;5095052;28;19908;-76
2021/05/04 04:55:25;;;;;;;;;;;9.20;99.90;;;;;;5095176;28;19908;-75
2021/05/04 04:57:51;;;;;;;;;;;9.20;99.90;;;;;;5095925;28;19915;-76
2021/05/04 05:00:16;;;;;;;;;;;9.20;99.90;;;;;;5094709;28;19955;-75
2021/05/04 05:02:42;;;;;;;;;;;9.20;99.90;;;;;;5094145;28;19911;-75
2021/05/04 05:05:08;;;;;;;;;;;9.20;99.90;;;;;;5093162;28;19930;-75
2021/05/04 05:07:33;;;;;;;;;;;9.30;99.90;;;;;;5095715;28;19907;-76
2021/05/04 05:09:59;;;;;;;;;;;9.30;99.90;;;;;;5094718;28;19915;-75
2021/05/04 05:12:25;;;;;;;;;;;9.40;99.90;;;;;;5095899;28;20043;-76
2021/05/04 05:14:52;;;;;;;;;;;9.40;99.90;;;;;;5095632;28;20315;-75
2021/05/04 05:17:18;;;;;;;;;;;9.50;99.90;;;;;;5095597;28;20360;-76
2021/05/04 05:19:44;;;;;;;;;;;9.60;99.90;;;;;;5094403;28;20003;-75
2021/05/04 05:22:09;;;;;;;;;;;9.60;99.90;;;;;;5097388;28;19943;-76
2021/05/04 05:24:35;;;;;;;;;;;9.60;99.90;;;;;;5102751;28;19908;-76
2021/05/04 05:27:01;;;;;;;;;;;9.60;99.90;;;;;;5099855;28;19908;-76
2021/05/04 05:29:30;;;;;;;;;;;9.70;99.90;;;;;;5097911;28;19916;-75
2021/05/04 05:31:55;;;;;;;;;;;9.80;99.90;;;;;;5088377;28;19915;-74
2021/05/04 05:34:21;;;;;;;;;;;9.90;99.90;;;;;;5096145;28;19912;-75
2021/05/04 05:36:46;;;;;;;;;;;10.00;99.90;;;;;;5094259;28;19936;-74
2021/05/04 05:39:12;;;;;;;;;;;10.10;99.90;;;;;;5095333;28;20260;-75
2021/05/04 05:41:37;;;;;;;;;;;10.20;99.90;;;;;;5095023;28;19920;-74
2021/05/04 05:44:04;;;;;;;;;;;10.20;99.90;;;;;;5095025;28;20352;-73
2021/05/04 05:46:30;;;;;;;;;;;10.20;99.90;;;;;;5094924;28;19951;-73
2021/05/04 05:48:59;;;;;;;;;;;10.30;99.90;;;;;;5095008;28;19969;-74
2021/05/04 05:51:25;;;;;;;;;;;10.30;99.90;;;;;;5094678;28;19915;-74
2021/05/04 05:53:50;;;;;;;;;;;10.30;99.90;;;;;;5093625;28;19907;-73
2021/05/04 05:56:16;;;;;;;;;;;10.30;99.90;;;;;;5089619;28;19916;-73
2021/05/04 05:58:41;;;;;;;;;;;10.20;99.90;;;;;;5094846;28;19915;-73
2021/05/04 06:01:07;;;;;;;;;;;10.20;99.90;;;;;;5093360;28;20264;-74
2021/05/04 06:03:32;;;;;;;;;;;10.10;99.90;;;;;;5093501;28;19908;-73
2021/05/04 06:05:58;;;;;;;;;;;10.10;99.90;;;;;;5093257;28;19915;-73
2021/05/04 06:08:24;;;;;;;;;;;10.10;99.90;;;;;;5094435;28;19947;-73
2021/05/04 06:10:50;;;;;;;;;;;10.10;99.90;;;;;;5093894;28;19951;-74
2021/05/04 06:13:15;;;;;;;;;;;10.10;99.90;;;;;;5092886;28;19908;-73
2021/05/04 06:15:41;;;;;;;;;;;10.10;99.90;;;;;;5094290;28;19923;-74
2021/05/04 06:18:10;;;;;;;;;;;10.20;99.90;;;;;;5094321;28;19904;-74
2021/05/04 06:20:36;;;;;;;;;;;10.30;99.90;;;;;;5094263;28;19951;-74
2021/05/04 06:23:02;;;;;;;;;;;10.60;99.90;;;;;;5094216;28;20401;-74
2021/05/04 06:25:27;;;;;;;;;;;10.70;99.90;;;;;;5093929;28;19904;-73
2021/05/04 06:27:54;;;;;;;;;;;10.60;99.90;;;;;;5092475;28;20320;-73
2021/05/04 06:30:19;;;;;;;;;;;10.60;99.90;;;;;;5094135;28;20374;-72
2021/05/04 06:32:46;;;;;;;;;;;10.40;99.90;;;;;;5094021;28;19912;-73
2021/05/04 06:35:17;;;;;;;;;;;10.30;99.90;;;;;;5094109;28;19908;-73
2021/05/04 06:37:42;;;;;;;;;;;10.40;99.90;;;;;;5093966;28;19904;-73
2021/05/04 06:40:09;;;;;;;;;;;10.40;99.90;;;;;;5093845;28;19904;-73
2021/05/04 06:42:35;;;;;;;;;;;10.40;99.90;;;;;;5093828;28;19939;-73
2021/05/04 06:45:01;;;;;;;;;;;10.40;99.90;;;;;;5092739;28;20007;-72
2021/05/04 06:47:27;;;;;;;;;;;10.40;99.90;;;;;;5093812;28;19950;-73
2021/05/04 06:49:52;;;;;;;;;;;10.40;99.90;;;;;;5093487;28;19915;-72
2021/05/04 06:52:18;;;;;;;;;;;10.40;99.90;;;;;;5093742;28;19908;-73
2021/05/04 06:54:44;;;;;;;;;;;10.40;99.90;;;;;;5093340;28;19961;-72
2021/05/04 06:57:10;;;;;;;;;;;10.40;99.90;;;;;;5092287;28;19908;-74
2021/05/04 06:59:35;;;;;;;;;;;10.40;99.90;;;;;;5094039;28;19910;-72
2021/05/04 07:02:01;;;;;;;;;;;10.50;99.90;;;;;;5093037;28;19916;-73
2021/05/04 07:04:26;;;;;;;;;;;10.60;99.90;;;;;;5093589;28;20448;-73
2021/05/04 07:06:52;;;;;;;;;;;10.50;99.90;;;;;;5091696;28;19915;-73
2021/05/04 07:09:17;;;;;;;;;;;10.60;99.90;;;;;;5095819;28;20380;-75
2021/05/04 07:11:43;;;;;;;;;;;10.70;99.90;;;;;;5097201;28;20364;-74
2021/05/04 07:14:08;;;;;;;;;;;10.70;99.90;;;;;;5095735;28;19914;-74
2021/05/04 07:16:35;;;;;;;;;;;10.80;99.90;;;;;;5094577;28;19977;-74
2021/05/04 07:19:01;;;;;;;;;;;10.80;99.90;;;;;;5094752;28;19926;-73
2021/05/04 07:21:27;;;;;;;;;;;10.80;99.90;;;;;;5093539;28;20309;-74
2021/05/04 07:23:52;;;;;;;;;;;10.80;99.90;;;;;;5095236;28;20003;-75
2021/05/04 07:26:18;;;;;;;;;;;10.80;99.90;;;;;;5097834;28;19953;-73
2021/05/04 07:28:44;;;;;;;;;;;10.70;99.90;;;;;;5095939;28;19912;-75
2021/05/04 07:31:10;;;;;;;;;;;10.70;99.90;;;;;;5091016;28;19908;-74
2021/05/04 07:33:36;;;;;;;;;;;10.80;99.90;;;;;;5095221;28;19916;-76
2021/05/04 07:36:01;;;;;;;;;;;10.80;99.90;;;;;;5098083;28;19912;-72
2021/05/04 07:38:27;;;;;;;;;;;10.80;99.90;;;;;;5098927;28;20016;-75
2021/05/04 07:40:52;;;;;;;;;;;10.80;99.90;;;;;;5097980;28;19908;-75
2021/05/04 07:43:18;;;;;;;;;;;10.70;99.90;;;;;;5096048;28;20397;-73
2021/05/04 07:45:44;;;;;;;;;;;10.40;99.90;;;;;;5097772;28;20282;-73
2021/05/04 07:48:11;;;;;;;;;;;10.30;99.90;;;;;;5097261;28;19912;-73
2021/05/04 07:50:37;;;;;;;;;;;10.40;99.90;;;;;;5085969;28;19951;-73
2021/05/04 07:53:03;;;;;;;;;;;10.50;99.90;;;;;;5097158;28;19904;-73
2021/05/04 07:55:28;;;;;;;;;;;10.60;99.90;;;;;;5096982;28;20387;-74
2021/05/04 07:57:54;;;;;;;;;;;10.70;99.90;;;;;;5096058;28;19990;-73
2021/05/04 08:00:19;;;;;;;;;;;10.80;99.90;;;;;;5095372;28;19958;-73
2021/05/04 08:02:45;;;;;;;;;;;10.80;99.90;;;;;;5096719;28;19998;-74
2021/05/04 08:05:10;;;;;;;;;;;10.80;99.90;;;;;;5095034;28;20003;-73
2021/05/04 08:07:36;;;;;;;;;;;10.70;99.90;;;;;;5094971;28;19915;-74
2021/05/04 08:10:02;;;;;;;;;;;10.60;99.90;;;;;;5096592;28;19945;-75
2021/05/04 08:12:28;;;;;;;;;;;10.50;99.90;;;;;;5095159;28;19915;-74
2021/05/04 08:15:18;;;;;;;;;;;10.40;99.90;;;;;;5095087;28;19919;-74
2021/05/04 08:17:51;;;;;;;;;;;10.40;99.90;;;;;;5086031;28;19979;-74
2021/05/04 08:20:17;;;;;;;;;;;10.40;99.90;;;;;;5096327;28;19962;-75
2021/05/04 08:22:42;;;;;;;;;;;10.60;99.90;;;;;;5096143;28;19915;-77
2021/05/04 08:25:08;;;;;;;;;;;10.60;99.90;;;;;;5096832;28;19915;-75
2021/05/04 08:27:33;;;;;;;;;;;10.70;99.90;;;;;;5096689;28;20029;-75
2021/05/04 08:29:59;;;;;;;;;;;10.60;99.90;;;;;;5095513;28;19908;-76
2021/05/04 08:32:24;;;;;;;;;;;10.60;99.90;;;;;;5096013;28;19962;-75
2021/05/04 08:34:50;;;;;;;;;;;10.70;99.90;;;;;;5095155;28;19908;-75
2021/05/04 08:37:16;;;;;;;;;;;10.70;99.90;;;;;;5096534;28;19904;-75
2021/05/04 08:39:41;;;;;;;;;;;10.80;99.90;;;;;;5096636;28;19912;-76
2021/05/04 08:42:07;;;;;;;;;;;10.80;99.90;;;;;;5095557;28;19915;-75
2021/05/04 08:44:34;;;;;;;;;;;10.80;99.90;;;;;;5094766;28;19916;-77
2021/05/04 08:47:00;;;;;;;;;;;10.60;99.90;;;;;;5095403;28;19903;-76
2021/05/04 08:49:26;;;;;;;;;;;10.40;99.90;;;;;;5094108;28;19912;-75
2021/05/04 08:51:52;;;;;;;;;;;10.00;99.90;;;;;;5094450;28;19904;-75
2021/05/04 08:54:18;;;;;;;;;;;9.90;99.90;;;;;;5097269;28;19979;-75
2021/05/04 08:56:44;;;;;;;;;;;9.90;99.90;;;;;;5099834;28;20415;-76
2021/05/04 08:59:10;;;;;;;;;;;10.10;99.90;;;;;;5100693;28;19939;-77
2021/05/04 09:01:36;;;;;;;;;;;10.40;99.90;;;;;;5097863;28;19981;-75
2021/05/04 09:04:10;;;;;;;;;;;10.70;99.90;;;;;;5095332;28;19912;-76
2021/05/04 09:06:42;;;;;;;;;;;10.90;99.90;;;;;;5096373;28;19910;-74
2021/05/04 09:09:22;;;;;;;;;;;10.80;99.90;;;;;;5095399;28;19919;-75
2021/05/04 09:20:00;;;;;;;;;;;11.70;99.90;;;;;;5095760;28;19908;-75
2021/05/04 09:22:40;;;;;;;;;;;11.50;99.90;;;;;;5095430;28;19931;-74
2021/05/04 09:25:26;;;;;;;;;;;11.00;99.90;;;;;;5075484;28;20042;-74
2021/05/04 09:28:04;;;;;;;;;;;10.60;99.90;;;;;;5093273;28;19916;-74
2021/05/04 09:30:30;;;;;;;;;;;10.30;99.90;;;;;;5095528;28;19943;-77
2021/05/04 09:32:56;;;;;;;;;;;10.30;99.90;;;;;;5091802;28;19919;-79
2021/05/04 09:35:28;;;;;;;;;;;10.30;99.90;;;;;;5093883;28;19912;-81
2021/05/04 09:38:02;;;;;;;;;;;10.30;99.90;;;;;;5094925;28;20358;-82
2021/05/04 09:40:29;;;;;;;;;;;10.30;99.90;;;;;;5096624;28;19912;-82
2021/05/04 09:43:02;;;;;;;;;;;10.30;99.90;;;;;;5094345;28;19908;-80
2021/05/04 09:45:28;;;;;;;;;;;10.00;99.90;;;;;;5096018;28;20317;-84
2021/05/04 09:48:12;;;;;;;;;;;10.00;99.90;;;;;;5096121;28;19908;-81
2021/05/04 09:50:56;;;;;;;;;;;10.00;99.90;;;;;;5095259;28;19950;-81
2021/05/04 09:53:57;;;;;;;;;;;10.00;99.90;;;;;;5096864;28;19903;-82
2021/05/04 09:56:15;;;;;;;;;;;10.10;99.90;;;;;;5097345;28;19892;-82
2021/05/04 09:58:45;;;;;;;;;;;10.30;99.90;;;;;;5096417;28;19915;-79
2021/05/04 10:01:15;;;;;;;;;;;10.80;99.90;;;;;;5096430;28;19916;-76
2021/05/04 10:03:42;;;;;;;;;;;11.20;99.90;;;;;;5094663;28;19911;-76
2021/05/04 10:06:08;;;;;;;;;;;11.40;99.90;;;;;;5093553;28;20348;-73
2021/05/04 10:08:34;;;;;;;;;;;11.10;99.90;;;;;;5094537;28;19912;-73
2021/05/04 10:11:10;;;;;;;;;;;10.90;99.90;;;;;;5093227;28;19908;-73
2021/05/04 10:13:36;;;;;;;;;;;10.60;99.90;;;;;;5092892;28;19907;-74
2021/05/04 10:16:03;;;;;;;;;;;10.30;99.90;;;;;;5092899;28;19919;-72
2021/05/04 10:18:29;;;;;;;;;;;10.20;99.90;;;;;;5093768;28;19908;-74
2021/05/04 10:20:56;;;;;;;;;;;10.30;99.90;;;;;;5074461;28;19909;-73
2021/05/04 10:23:23;;;;;;;;;;;10.40;99.90;;;;;;5087623;28;20007;-75
2021/05/04 10:25:52;;;;;;;;;;;10.40;99.90;;;;;;5093009;28;19908;-76
2021/05/04 10:28:18;;;;;;;;;;;10.30;99.90;;;;;;5093355;28;19991;-74
2021/05/04 10:30:45;;;;;;;;;;;10.30;99.90;;;;;;5107660;28;19908;-73
2021/05/04 10:33:25;;;;;;;;;;;10.30;99.90;;;;;;5114022;28;19896;-73
2021/05/04 10:35:52;;;;;;;;;;;10.30;99.90;;;;;;5111799;28;19908;-72
2021/05/04 10:38:17;;;;;;;;;;;10.30;99.90;;;;;;5115449;28;19919;-73
2021/05/04 10:40:45;;;;;;;;;;;10.50;99.90;;;;;;5099560;28;19908;-74
2021/05/04 10:43:22;;;;;;;;;;;10.60;99.90;;;;;;5096851;28;19908;-74
2021/05/04 10:45:48;;;;;;;;;;;10.60;99.90;;;;;;5095468;28;19908;-75
2021/05/04 10:48:14;;;;;;;;;;;10.50;99.90;;;;;;5093876;28;20370;-74
2021/05/04 10:50:47;;;;;;;;;;;10.50;99.90;;;;;;5094701;28;19954;-75
2021/05/04 10:53:13;;;;;;;;;;;10.40;99.90;;;;;;5094599;28;20469;-74
2021/05/04 10:55:51;;;;;;;;;;;10.50;99.90;;;;;;5093871;28;19908;-75
2021/05/04 10:58:17;;;;;;;;;;;10.60;99.90;;;;;;5092696;28;20291;-75
2021/05/04 11:00:49;;;;;;;;;;;10.90;99.90;;;;;;5094310;28;20382;-74
2021/05/04 11:03:30;;;;;;;;;;;10.90;99.90;;;;;;5093067;28;20256;-75
2021/05/04 11:06:00;;;;;;;;;;;11.00;99.90;;;;;;5093650;28;20006;-76
2021/05/04 11:08:44;;;;;;;;;;;10.80;99.90;;;;;;5094149;28;20340;-75
2021/05/04 11:11:29;;;;;;;;;;;10.80;99.90;;;;;;5093849;28;19908;-77
2021/05/04 11:13:58;;;;;;;;;;;10.80;99.90;;;;;;5092840;28;20284;-75
2021/05/04 11:16:28;;;;;;;;;;;11.00;99.90;;;;;;5091841;28;20010;-75
2021/05/04 11:19:04;;;;;;;;;;;11.00;99.90;;;;;;5092120;28;19917;-74
2021/05/04 11:21:46;;;;;;;;;;;11.00;99.90;;;;;;5093794;28;19908;-74
2021/05/04 11:24:12;;;;;;;;;;;10.80;99.90;;;;;;5093543;28;19912;-74
2021/05/04 11:26:57;;;;;;;;;;;10.90;99.90;;;;;;5093552;28;19927;-75
2021/05/04 11:29:23;;;;;;;;;;;11.00;99.90;;;;;;5091950;28;19912;-75
2021/05/04 11:31:52;;;;;;;;;;;11.10;99.90;;;;;;5092124;28;19915;-76
2021/05/04 11:34:39;;;;;;;;;;;11.00;99.90;;;;;;5091287;28;19934;-76
2021/05/04 11:37:06;;;;;;;;;;;11.10;99.90;;;;;;5092384;28;19930;-75
2021/05/04 11:39:32;;;;;;;;;;;11.30;99.90;;;;;;5093256;28;19912;-75
2021/05/04 11:41:59;;;;;;;;;;;11.20;99.90;;;;;;5093254;28;19908;-76
2021/05/04 11:44:25;;;;;;;;;;;11.40;99.90;;;;;;5093513;28;19915;-75
2021/05/04 11:46:51;;;;;;;;;;;11.60;99.90;;;;;;5093488;28;19951;-74
2021/05/04 11:49:23;;;;;;;;;;;11.60;99.90;;;;;;5093142;28;20359;-75
2021/05/04 11:52:05;;;;;;;;;;;11.50;99.90;;;;;;5092077;28;19915;-74
2021/05/04 11:54:32;;;;;;;;;;;11.60;99.90;;;;;;5093417;28;19934;-75
2021/05/04 11:56:58;;;;;;;;;;;11.60;99.90;;;;;;5092016;28;20447;-76
2021/05/04 11:59:25;;;;;;;;;;;11.60;99.90;;;;;;5093670;28;20233;-74
2021/05/04 12:01:50;;;;;;;;;;;11.40;99.90;;;;;;5093386;28;19915;-73
2021/05/04 12:04:16;;;;;;;;;;;11.40;99.90;;;;;;5093342;28;20292;-74
2021/05/04 12:06:45;;;;;;;;;;;11.30;99.90;;;;;;5091819;28;19915;-75
2021/05/04 12:09:14;;;;;;;;;;;11.10;99.90;;;;;;5094576;28;20065;-74
2021/05/04 12:11:40;;;;;;;;;;;11.10;99.90;;;;;;5096371;28;19916;-75
2021/05/04 12:14:06;;;;;;;;;;;11.00;99.90;;;;;;5096474;28;19908;-76
2021/05/04 12:16:32;;;;;;;;;;;10.90;99.90;;;;;;5096794;28;19927;-75
2021/05/04 12:18:57;;;;;;;;;;;10.90;99.90;;;;;;5095770;28;20370;-75
2021/05/04 12:21:23;;;;;;;;;;;10.90;99.90;;;;;;5096870;28;20340;-75
2021/05/04 12:23:49;;;;;;;;;;;10.90;99.90;;;;;;5096475;28;19930;-74
2021/05/04 12:26:20;;;;;;;;;;;10.80;99.90;;;;;;5097107;28;19908;-76
2021/05/04 12:28:47;;;;;;;;;;;10.80;99.90;;;;;;5099282;28;19912;-75
2021/05/04 12:31:17;;;;;;;;;;;10.80;99.90;;;;;;5100202;28;19914;-77
2021/05/04 12:33:44;;;;;;;;;;;10.90;99.90;;;;;;5099217;28;20429;-75
2021/05/04 12:36:16;;;;;;;;;;;10.90;99.90;;;;;;5098339;28;19908;-74
2021/05/04 12:41:13;;;;;;;;;;;10.00;99.90;;;;;;5097519;28;19911;-78
2021/05/04 12:43:42;;;;;;;;;;;9.70;99.90;;;;;;5095896;28;19933;-75
2021/05/04 12:46:09;;;;;;;;;;;9.80;99.90;;;;;;5095172;28;19908;-76
2021/05/04 12:48:35;;;;;;;;;;;10.00;99.90;;;;;;5095142;28;19915;-76
2021/05/04 12:51:05;;;;;;;;;;;10.30;99.90;;;;;;5096368;28;20305;-75
2021/05/04 12:53:35;;;;;;;;;;;10.50;99.90;;;;;;5096213;28;20002;-74
2021/05/04 12:56:30;;;;;;;;;;;10.70;99.90;;;;;;5094473;28;19914;-75
2021/05/04 12:58:57;;;;;;;;;;;10.90;99.90;;;;;;5087186;28;19931;-75
2021/05/04 13:01:30;;;;;;;;;;;11.00;99.90;;;;;;5096180;28;19908;-75
2021/05/04 13:03:56;;;;;;;;;;;11.00;99.90;;;;;;5096087;28;19908;-75
2021/05/04 13:06:31;;;;;;;;;;;11.10;99.90;;;;;;5094230;28;19954;-75
2021/05/04 13:09:08;;;;;;;;;;;11.30;99.90;;;;;;5094444;28;20379;-75
2021/05/04 13:11:35;;;;;;;;;;;11.30;99.90;;;;;;5095480;28;20437;-76
2021/05/04 13:14:19;;;;;;;;;;;11.10;99.90;;;;;;5094613;28;19914;-75
2021/05/04 13:20:18;;;;;;;;;;;11.40;99.90;;;;;;5095458;28;19999;-74
2021/05/04 13:30:37;;;;;;;;;;;11.70;99.90;;;;;;5095523;28;20161;-76
2021/05/04 13:33:06;;;;;;;;;;;11.40;99.90;;;;;;5095240;28;19950;-74
2021/05/04 13:35:36;;;;;;;;;;;11.10;99.90;;;;;;5095319;28;19911;-71
2021/05/04 13:48:42;;;;;;;;;;;11.50;99.90;;;;;;5094818;28;19919;-73
2021/05/04 13:51:08;;;;;;;;;;;11.40;99.90;;;;;;5094949;28;20352;-74
2021/05/04 13:53:33;;;;;;;;;;;11.40;99.90;;;;;;5093887;28;19908;-75
2021/05/04 13:55:59;;;;;;;;;;;11.20;99.90;;;;;;5094697;28;19911;-73
2021/05/04 13:58:29;;;;;;;;;;;11.10;99.90;;;;;;5093817;28;19939;-72
2021/05/04 14:27:10;;;;;;;;;;;9.40;99.90;;;;;;5094646;28;19931;-74
2021/05/04 14:29:35;;;;;;;;;;;9.70;99.90;;;;;;5094252;28;19912;-74
2021/05/04 14:32:01;;;;;;;;;;;10.00;99.90;;;;;;5092495;28;20253;-75
2021/05/04 14:34:28;;;;;;;;;;;10.00;99.90;;;;;;5093701;28;19957;-75
2021/05/04 14:37:02;;;;;;;;;;;10.00;99.90;;;;;;5092082;28;19908;-76
2021/05/04 14:39:41;;;;;;;;;;;9.90;99.90;;;;;;5092669;28;19987;-75
2021/05/04 14:45:39;;;;;;;;;;;10.10;99.90;;;;;;5093907;28;20018;-75
2021/05/04 14:58:48;;;;;;;;;;;9.70;99.90;;;;;;5088177;28;19908;-73
2021/05/04 15:03:25;;;;;;;;;;;9.30;99.90;;;;;;5091784;28;19997;-75
2021/05/04 15:05:50;;;;;;;;;;;9.50;99.90;;;;;;5093269;28;19926;-72
2021/05/04 15:08:16;;;;;;;;;;;9.50;99.90;;;;;;5093108;28;19965;-73
2021/05/04 15:10:43;;;;;;;;;;;9.60;99.90;;;;;;5090958;28;20402;-73
2021/05/04 15:13:12;;;;;;;;;;;9.80;99.90;;;;;;5085787;28;19908;-74
2021/05/04 15:21:28;;;;;;;;;;;10.10;99.90;;;;;;5092432;28;19924;-73
2021/05/04 15:23:53;;;;;;;;;;;10.00;99.90;;;;;;5092810;28;20291;-75
2021/05/04 15:26:19;;;;;;;;;;;10.10;99.90;;;;;;5091494;28;19915;-73
2021/05/04 15:28:44;;;;;;;;;;;10.10;99.90;;;;;;5091795;28;20297;-73
2021/05/04 15:31:10;;;;;;;;;;;10.20;99.90;;;;;;5089357;28;19912;-73
2021/05/04 15:33:41;;;;;;;;;;;10.40;99.90;;;;;;5092814;28;19994;-74
2021/05/04 15:36:14;;;;;;;;;;;10.60;99.90;;;;;;5091262;28;19915;-73
2021/05/04 15:38:40;;;;;;;;;;;10.50;99.90;;;;;;5091740;28;20007;-74
2021/05/04 15:41:05;;;;;;;;;;;10.40;99.90;;;;;;5088641;28;19955;-75
2021/05/04 15:43:31;;;;;;;;;;;10.40;99.90;;;;;;5090393;28;20045;-74
2021/05/04 15:46:09;;;;;;;;;;;10.40;99.90;;;;;;5094856;28;19908;-74